createdAt,value
2023-04-25T00:00:24.772Z,95116.19
2023-04-25T00:05:46.915Z,95114.22
2023-04-25T00:11:08.768Z,95104.88
2023-04-25T00:16:30.907Z,95105.66
2023-04-25T00:21:53.775Z,95113.09
2023-04-25T00:27:15.756Z,95104.50
2023-04-25T00:32:37.790Z,95110.72
2023-04-25T00:37:59.759Z,95105.66
2023-04-25T00:43:21.770Z,95103.34
2023-04-25T00:48:43.789Z,95103.38
2023-04-25T00:54:05.783Z,95096.00
2023-04-25T00:59:27.738Z,95093.31
2023-04-25T01:04:49.753Z,95084.38
2023-04-25T01:10:13.778Z,95089.09
2023-04-25T01:15:35.747Z,95094.56
2023-04-25T01:21:01.778Z,95089.56
2023-04-25T01:26:24.736Z,95077.91
2023-04-25T01:31:46.789Z,95088.84
2023-04-25T01:37:10.740Z,95077.16
2023-04-25T01:42:32.731Z,95078.75
2023-04-25T01:47:57.793Z,95084.63
2023-04-25T01:53:21.766Z,95085.44
2023-04-25T01:58:43.719Z,95086.28
2023-04-25T02:04:08.992Z,95077.34
2023-04-25T02:09:30.734Z,95074.66
2023-04-25T02:14:54.742Z,95074.31
2023-04-25T02:20:27.793Z,95073.59
2023-04-25T02:25:50.753Z,95080.31
2023-04-25T02:31:12.786Z,95069.41
2023-04-25T02:36:34.726Z,95067.09
2023-04-25T02:41:56.737Z,95071.44
2023-04-25T02:47:18.787Z,95062.06
2023-04-25T02:52:40.735Z,95054.22
2023-04-25T02:58:06.754Z,95054.22
2023-04-25T03:03:33.760Z,95040.97
2023-04-25T03:08:55.741Z,95038.59
2023-04-25T03:14:17.740Z,95037.47
2023-04-25T03:19:39.736Z,95031.22
2023-04-25T03:25:01.741Z,95036.69
2023-04-25T03:30:23.743Z,95032.41
2023-04-25T03:35:45.710Z,95032.44
2023-04-25T03:41:08.738Z,95036.00
2023-04-25T03:46:37.712Z,95037.19
2023-04-25T03:51:59.734Z,95036.44
2023-04-25T03:57:25.736Z,95033.72
2023-04-25T04:02:47.829Z,95032.94
2023-04-25T04:08:09.704Z,95032.56
2023-04-25T04:13:32.722Z,95038.03
2023-04-25T04:18:55.713Z,95035.31
2023-04-25T04:24:17.716Z,95030.66
2023-04-25T04:29:45.706Z,95031.06
2023-04-25T04:35:16.697Z,95031.03
2023-04-25T04:40:39.679Z,95018.13
2023-04-25T04:46:11.747Z,95025.16
2023-04-25T04:51:52.726Z,95024.00
2023-04-25T04:57:29.720Z,95036.88
2023-04-25T05:03:10.845Z,95034.53
2023-04-25T05:08:41.786Z,95033.38
2023-04-25T05:14:22.691Z,95041.69
2023-04-25T05:19:55.689Z,95031.97
2023-04-25T05:25:40.676Z,95023.03
2023-04-25T05:31:21.738Z,95031.59
2023-04-25T05:36:55.684Z,95033.94
2023-04-25T05:42:18.682Z,95030.84
2023-04-25T05:47:46.686Z,95024.97
2023-04-25T05:53:21.670Z,95026.91
2023-04-25T05:58:48.692Z,95023.09
2023-04-25T06:04:10.905Z,95023.09
2023-04-25T06:09:32.673Z,95028.91
2023-04-25T06:14:54.752Z,95028.16
2023-04-25T06:20:16.685Z,95031.66
2023-04-25T06:25:39.661Z,95029.34
2023-04-25T06:31:01.686Z,95039.41
2023-04-25T06:36:23.665Z,95031.59
2023-04-25T06:41:52.682Z,95030.78
2023-04-25T06:47:29.725Z,95044.44
2023-04-25T06:52:51.670Z,95028.69
2023-04-25T06:58:14.648Z,95035.19
2023-04-25T07:03:53.004Z,95039.41
2023-04-25T07:09:14.646Z,95060.81
2023-04-25T07:14:38.661Z,95049.53
2023-04-25T07:20:00.681Z,95034.28
2023-04-25T07:25:22.675Z,95030.28
2023-04-25T07:30:44.640Z,95036.44
2023-04-25T07:36:06.661Z,95027.78
2023-04-25T07:41:28.655Z,95029.66
2023-04-25T07:46:50.654Z,95023.28
2023-04-25T07:52:16.672Z,95028.97
2023-04-25T07:57:45.652Z,95031.88
2023-04-25T08:03:08.884Z,95028.66
2023-04-25T08:08:31.720Z,95038.06
2023-04-25T08:13:54.695Z,95033.31
2023-04-25T08:19:16.967Z,95030.56
2023-04-25T08:24:39.962Z,95066.59
2023-04-25T08:30:01.722Z,95050.97
2023-04-25T08:35:24.678Z,95057.25
2023-04-25T08:40:51.678Z,95073.72
2023-04-25T08:46:13.841Z,95072.63
2023-04-25T08:52:04.645Z,95093.09
2023-04-25T08:57:28.645Z,95088.03
2023-04-25T09:02:50.831Z,95083.78
2023-04-25T09:08:12.614Z,95097.31
2023-04-25T09:13:43.632Z,95092.19
2023-04-25T09:19:12.625Z,95103.25
2023-04-25T09:24:56.640Z,95119.50
2023-04-25T09:30:18.667Z,95115.06
2023-04-25T09:36:00.634Z,95126.44
2023-04-25T09:41:34.655Z,95120.19
2023-04-25T09:47:00.615Z,95129.50
2023-04-25T09:52:25.847Z,95127.00
2023-04-25T09:58:05.619Z,95133.94
2023-04-25T10:03:31.870Z,95147.75
2023-04-25T10:09:06.628Z,95137.72
2023-04-25T10:14:29.622Z,95158.06
2023-04-25T10:19:51.590Z,95160.09
2023-04-25T10:25:21.644Z,95153.81
2023-04-25T10:30:43.621Z,95150.53
2023-04-25T10:36:05.600Z,95154.16
2023-04-25T10:41:29.625Z,95160.16
2023-04-25T10:46:51.658Z,95160.84
2023-04-25T10:52:20.911Z,95159.56
2023-04-25T10:57:52.615Z,95156.84
2023-04-25T11:03:14.961Z,95153.09
2023-04-25T11:08:53.007Z,95142.34
2023-04-25T11:14:14.895Z,95155.59
2023-04-25T11:19:37.647Z,95153.72
2023-04-25T11:24:59.593Z,95155.22
2023-04-25T11:30:26.746Z,95155.59
2023-04-25T11:35:48.664Z,95145.31
2023-04-25T11:41:11.886Z,95138.88
2023-04-25T11:46:33.729Z,95150.41
2023-04-25T11:51:56.642Z,95139.22
2023-04-25T11:57:19.627Z,95139.03
2023-04-25T12:02:41.727Z,95139.81
2023-04-25T12:08:03.875Z,95144.88
2023-04-25T12:13:36.610Z,95154.28
2023-04-25T12:19:00.678Z,95161.41
2023-04-25T12:24:39.084Z,95155.94
2023-04-25T12:30:03.591Z,95158.69
2023-04-25T12:35:25.575Z,95152.03
2023-04-25T12:40:47.577Z,95147.19
2023-04-25T12:46:09.608Z,95177.63
2023-04-25T12:51:32.572Z,95182.44
2023-04-25T12:56:55.587Z,95176.78
2023-04-25T13:02:24.655Z,95174.91
2023-04-25T13:07:46.568Z,95183.59
2023-04-25T13:13:08.643Z,95187.06
2023-04-25T13:18:33.593Z,95191.59
2023-04-25T13:23:55.767Z,95200.34
2023-04-25T13:29:17.573Z,95192.25
2023-04-25T13:34:39.559Z,95207.09
2023-04-25T13:40:02.584Z,95214.53
2023-04-25T13:45:24.581Z,95212.22
2023-04-25T13:50:46.688Z,95208.56
2023-04-25T13:56:08.570Z,95208.50
2023-04-25T14:01:38.615Z,95198.69
2023-04-25T14:07:00.603Z,95202.75
2023-04-25T14:12:22.566Z,95221.84
2023-04-25T14:17:44.632Z,95231.53
2023-04-25T14:23:06.648Z,95257.19
2023-04-25T14:28:28.606Z,95237.41
2023-04-25T14:33:50.710Z,95256.59
2023-04-25T14:39:15.873Z,95252.69
2023-04-25T14:44:37.617Z,95250.03
2023-04-25T14:50:01.737Z,95259.41
2023-04-25T14:55:23.589Z,95261.34
2023-04-25T15:00:45.608Z,95257.63
2023-04-25T15:06:09.564Z,95268.97
2023-04-25T15:11:31.573Z,95275.72
2023-04-25T15:16:53.596Z,95285.00
2023-04-25T15:22:15.564Z,95292.91
2023-04-25T15:27:38.592Z,95292.22
2023-04-25T15:33:00.651Z,95294.22
2023-04-25T15:38:22.535Z,95308.28
2023-04-25T15:43:45.542Z,95312.56
2023-04-25T15:49:07.568Z,95309.03
2023-04-25T15:54:29.545Z,95307.53
2023-04-25T15:59:51.579Z,95319.34
2023-04-25T16:05:13.720Z,95331.50
2023-04-25T16:10:35.544Z,95327.97
2023-04-25T16:15:57.559Z,95321.63
2023-04-25T16:21:22.542Z,95331.81
2023-04-25T16:26:44.537Z,95329.19
2023-04-25T16:32:06.538Z,95338.94
2023-04-25T16:37:28.525Z,95338.25
2023-04-25T16:42:50.510Z,95355.47
2023-04-25T16:48:12.573Z,95360.22
2023-04-25T16:53:34.513Z,95370.03
2023-04-25T16:58:56.540Z,95373.19
2023-04-25T17:04:18.661Z,95385.63
2023-04-25T17:09:40.503Z,95378.53
2023-04-25T17:15:02.503Z,95385.09
2023-04-25T17:20:24.521Z,95383.09
2023-04-25T17:25:46.527Z,95384.13
2023-04-25T17:31:08.611Z,95394.56
2023-04-25T17:36:30.513Z,95396.59
2023-04-25T17:41:52.504Z,95405.34
2023-04-25T17:47:14.497Z,95414.81
2023-04-25T17:52:36.522Z,95416.00
2023-04-25T17:57:58.508Z,95417.59
2023-04-25T18:03:27.682Z,95428.97
2023-04-25T18:08:51.680Z,95433.28
2023-04-25T18:14:14.498Z,95440.34
2023-04-25T18:19:36.486Z,95456.38
2023-04-25T18:24:58.513Z,95472.84
2023-04-25T18:30:20.529Z,95481.88
2023-04-25T18:35:55.348Z,95493.28
2023-04-25T18:41:42.169Z,95506.16
2023-04-25T18:47:02.481Z,95518.31
2023-04-25T18:52:25.496Z,95539.06
2023-04-25T18:57:47.571Z,95537.94
2023-04-25T19:03:16.588Z,95544.63
2023-04-25T19:08:38.539Z,95550.53
2023-04-25T19:14:04.514Z,95541.53
2023-04-25T19:19:26.476Z,95544.31
2023-04-25T19:24:52.951Z,95547.41
2023-04-25T19:30:24.471Z,95548.19
2023-04-25T19:35:46.487Z,95545.47
2023-04-25T19:41:08.485Z,95555.63
2023-04-25T19:46:30.507Z,95556.38
2023-04-25T19:51:52.478Z,95561.84
2023-04-25T19:57:14.517Z,95579.44
2023-04-25T20:02:36.603Z,95574.75
2023-04-25T20:07:58.502Z,95581.78
2023-04-25T20:13:20.502Z,95593.13
2023-04-25T20:18:42.484Z,95598.56
2023-04-25T20:24:04.472Z,95593.06
2023-04-25T20:29:26.472Z,95599.34
2023-04-25T20:34:48.466Z,95597.75
2023-04-25T20:40:12.480Z,95593.88
2023-04-25T20:45:38.498Z,95595.06
2023-04-25T20:51:00.479Z,95597.78
2023-04-25T20:56:23.455Z,95588.44
2023-04-25T21:01:45.502Z,95591.94
2023-04-25T21:07:22.456Z,95599.38
2023-04-25T21:12:44.497Z,95604.44
2023-04-25T21:18:06.519Z,95607.16
2023-04-25T21:23:28.456Z,95605.63
2023-04-25T21:28:50.575Z,95609.53
2023-04-25T21:34:13.454Z,95608.34
2023-04-25T21:39:35.461Z,95609.16
2023-04-25T21:44:57.656Z,95611.50
2023-04-25T21:50:19.494Z,95621.25
2023-04-25T21:55:41.462Z,95622.03
2023-04-25T22:01:03.455Z,95621.66
2023-04-25T22:06:25.447Z,95624.38
2023-04-25T22:11:49.466Z,95622.03
2023-04-25T22:17:12.447Z,95630.22
2023-04-25T22:22:34.431Z,95634.91
2023-04-25T22:27:57.452Z,95645.03
2023-04-25T22:33:19.470Z,95654.00
2023-04-25T22:38:41.453Z,95647.00
2023-04-25T22:44:03.431Z,95641.13
2023-04-25T22:49:25.453Z,95655.97
2023-04-25T22:54:47.428Z,95649.72
2023-04-25T23:00:14.449Z,95642.72
2023-04-25T23:05:37.430Z,95643.88
2023-04-25T23:10:59.434Z,95639.97
2023-04-25T23:16:22.467Z,95644.66
2023-04-25T23:21:44.445Z,95640.75
2023-04-25T23:27:06.419Z,95644.66
2023-04-25T23:32:28.462Z,95636.84
2023-04-25T23:37:51.443Z,95646.22
2023-04-25T23:43:13.456Z,95652.78
2023-04-25T23:48:35.446Z,95674.22
2023-04-25T23:53:57.400Z,95671.88
2023-04-25T23:59:19.418Z,95671.06
